Time;durP1;ratioP1;P1;durP2;ratioP2;P2;SDS_P1;SDS_P2;PMS_P1;PMS_P2;Temp;Humidity;BMP_temperature;BMP_pressure;BME280_temperature;BME280_humidity;BME280_pressure;Samples;Min_cycle;Max_cycle;Signal;HPM_P1;HPM_P2
2022/09/19 00:00:08;;;;;;;5.25;1.90;;;;;;;7.71;100.00;100836.38;685280;28;1036;-63
2022/09/19 00:00:29;;;;;;;6.57;1.98;;;;;;;7.71;100.00;100836.38;684550;28;1469;-62
2022/09/19 00:00:50;;;;;;;8.77;2.10;;;;;;;7.76;100.00;100843.38;684515;28;4536;-62
2022/09/19 00:01:18;;;;;;;8.75;2.10;;;;;;;7.81;100.00;100843.44;685944;28;1026;-63
2022/09/19 00:01:42;;;;;;;9.85;2.20;;;;;;;7.77;100.00;100839.91;685352;28;1029;-62
2022/09/19 00:02:03;;;;;;;9.75;2.00;;;;;;;7.81;100.00;100839.09;684755;28;986;-62
2022/09/19 00:02:23;;;;;;;8.53;1.97;;;;;;;7.81;100.00;100841.69;685188;28;1236;-61
2022/09/19 00:02:43;;;;;;;8.27;2.00;;;;;;;7.81;100.00;100839.09;686509;28;1089;-62
2022/09/19 00:03:04;;;;;;;9.77;2.10;;;;;;;7.80;100.00;100837.34;684828;28;1048;-62
2022/09/19 00:03:24;;;;;;;8.40;2.10;;;;;;;7.79;100.00;100843.41;685504;28;1276;-61
2022/09/19 00:03:50;;;;;;;8.10;2.10;;;;;;;7.77;100.00;100839.91;685173;28;4583;-63
2022/09/19 00:04:31;;;;;;;8.85;2.20;;;;;;;7.81;100.00;100836.50;684587;28;1586;-62
2022/09/19 00:04:52;;;;;;;6.55;1.98;;;;;;;7.83;100.00;100842.56;683553;28;1076;-63
2022/09/19 00:05:12;;;;;;;8.02;2.10;;;;;;;7.81;100.00;100841.69;683713;28;1968;-62
2022/09/19 00:05:33;;;;;;;9.53;2.00;;;;;;;7.80;100.00;100839.94;685222;28;1183;-62
2022/09/19 00:05:55;;;;;;;11.35;2.20;;;;;;;7.79;100.00;100845.13;684840;28;1177;-62
2022/09/19 00:06:17;;;;;;;11.63;2.13;;;;;;;7.80;100.00;100841.69;681521;28;1124;-62
2022/09/19 00:06:39;;;;;;;8.50;2.15;;;;;;;7.77;100.00;100847.72;681874;28;4347;-61
2022/09/19 00:07:00;;;;;;;8.02;2.10;;;;;;;7.78;100.00;100844.28;680993;28;1124;-62
2022/09/19 00:07:21;;;;;;;8.23;2.30;;;;;;;7.78;100.00;100843.38;682062;28;1201;-62
2022/09/19 00:07:43;;;;;;;10.53;2.17;;;;;;;7.74;100.00;100839.91;680778;29;1307;-63
2022/09/19 00:08:03;;;;;;;7.07;1.90;;;;;;;7.74;100.00;100839.91;683092;28;1266;-63
2022/09/19 00:08:24;;;;;;;9.27;1.80;;;;;;;7.76;100.00;100840.78;685017;28;1143;-62
2022/09/19 00:08:45;;;;;;;8.65;1.85;;;;;;;7.78;100.00;100849.47;685327;28;1281;-61
2022/09/19 00:09:07;;;;;;;6.72;1.90;;;;;;;7.78;100.00;100843.38;684992;28;1451;-62
2022/09/19 00:09:31;;;;;;;9.25;1.90;;;;;;;7.78;100.00;100846.88;683248;28;1314;-62
2022/09/19 00:09:51;;;;;;;11.65;2.25;;;;;;;7.78;100.00;100844.28;684623;28;4485;-63
2022/09/19 00:10:12;;;;;;;8.07;2.20;;;;;;;7.77;100.00;100842.53;685112;28;1042;-63
2022/09/19 00:10:39;;;;;;;5.57;1.93;;;;;;;7.78;100.00;100844.28;685469;28;1151;-62
2022/09/19 00:11:04;;;;;;;7.40;2.00;;;;;;;7.83;100.00;100846.91;685106;28;1064;-61
2022/09/19 00:11:25;;;;;;;8.82;2.22;;;;;;;7.86;100.00;100840.88;684665;28;1178;-62
2022/09/19 00:11:48;;;;;;;9.38;2.13;;;;;;;7.94;100.00;100842.66;684811;28;1071;-62
2022/09/19 00:12:08;;;;;;;8.13;1.83;;;;;;;7.92;100.00;100848.72;684617;28;1151;-62
2022/09/19 00:12:28;;;;;;;7.13;1.80;;;;;;;7.95;100.00;100836.63;682894;28;1238;-63
2022/09/19 00:12:49;;;;;;;6.57;1.95;;;;;;;7.99;100.00;100842.72;683338;28;4540;-62
2022/09/19 00:13:09;;;;;;;6.80;1.70;;;;;;;7.94;100.00;100834.00;686418;28;1370;-63
2022/09/19 00:13:31;;;;;;;9.75;1.90;;;;;;;7.91;100.00;100840.03;685460;28;1124;-62
2022/09/19 00:13:53;;;;;;;8.40;1.90;;;;;;;7.90;100.00;100834.84;685023;28;1223;-62
2022/09/19 00:14:16;;;;;;;7.65;1.90;;;;;;;7.96;100.00;100842.69;682870;28;993;-62
2022/09/19 00:14:36;;;;;;;8.93;2.05;;;;;;;8.15;100.00;100841.13;683942;28;1046;-62
2022/09/19 00:14:57;;;;;;;9.43;2.30;;;;;;;8.14;100.00;100840.25;684989;28;1053;-62
2022/09/19 00:15:17;;;;;;;8.27;1.95;;;;;;;8.10;100.00;100835.88;683040;28;1011;-62
2022/09/19 00:15:47;;;;;;;7.93;1.90;;;;;;;8.08;100.00;100842.78;685136;28;4452;-62
2022/09/19 00:16:07;;;;;;;8.40;1.90;;;;;;;8.03;100.00;100841.91;684396;28;1255;-62
2022/09/19 00:16:38;;;;;;;7.27;1.97;;;;;;;8.06;100.00;100847.13;685005;28;3613;-62
2022/09/19 00:17:03;;;;;;;7.32;1.77;;;;;;;7.95;100.00;100841.81;683586;28;1120;-62
2022/09/19 00:17:23;;;;;;;6.35;1.90;;;;;;;7.92;100.00;100840.91;685081;28;956;-61
2022/09/19 00:17:43;;;;;;;6.95;1.95;;;;;;;7.90;100.00;100837.44;684942;28;1415;-62
2022/09/19 00:18:04;;;;;;;7.53;2.20;;;;;;;8.01;100.00;100839.25;684643;28;1122;-62
2022/09/19 00:18:26;;;;;;;8.27;2.10;;;;;;;8.02;100.00;100845.34;684295;28;1303;-63
2022/09/19 00:18:48;;;;;;;9.38;1.90;;;;;;;7.99;100.00;100843.59;682777;28;4909;-62
2022/09/19 00:19:11;;;;;;;10.20;1.80;;;;;;;7.99;100.00;100838.38;684285;28;1227;-62
2022/09/19 00:19:32;;;;;;;10.18;1.98;;;;;;;7.99;100.00;100842.72;684427;28;1045;-63
2022/09/19 00:19:52;;;;;;;10.23;2.23;;;;;;;7.95;100.00;100836.63;684293;28;1124;-61
2022/09/19 00:20:13;;;;;;;8.65;2.00;;;;;;;7.93;100.00;100838.31;684848;28;1088;-62
2022/09/19 00:20:39;;;;;;;10.70;2.07;;;;;;;7.96;100.00;100840.97;684951;28;1135;-61
2022/09/19 00:21:00;;;;;;;8.57;1.92;;;;;;;7.96;100.00;100845.28;685779;28;1167;-62
2022/09/19 00:21:27;;;;;;;8.60;1.93;;;;;;;8.00;100.00;100839.25;684149;28;1245;-67
2022/09/19 00:21:48;;;;;;;8.43;1.90;;;;;;;8.02;100.00;100842.75;684921;28;4535;-62
2022/09/19 00:22:09;;;;;;;9.95;2.30;;;;;;;8.02;100.00;100838.41;685174;28;1060;-62
2022/09/19 00:22:29;;;;;;;11.30;1.97;;;;;;;8.02;100.00;100837.53;684013;28;1447;-62
2022/09/19 00:24:52;;;;;;;8.48;1.95;;;;;;;8.31;100.00;100844.72;684005;28;4634;-62
2022/09/19 00:25:13;;;;;;;7.53;1.80;;;;;;;8.26;100.00;100841.19;684654;28;1958;-62
2022/09/19 00:25:33;;;;;;;9.40;1.93;;;;;;;8.21;100.00;100843.78;684666;28;1096;-63
2022/09/19 00:26:06;;;;;;;10.00;2.13;;;;;;;8.17;100.00;100844.63;685463;28;1203;-62
2022/09/19 00:26:26;;;;;;;8.82;1.90;;;;;;;8.14;100.00;100837.66;683921;28;1244;-62
2022/09/19 00:26:46;;;;;;;10.63;2.00;;;;;;;8.13;100.00;100840.25;683689;28;1084;-62
2022/09/19 00:27:09;;;;;;;10.68;1.90;;;;;;;8.08;100.00;100840.19;681848;28;1154;-63
2022/09/19 00:27:29;;;;;;;9.02;1.98;;;;;;;8.06;100.00;100846.22;680361;28;1365;-63
2022/09/19 00:27:50;;;;;;;10.40;2.00;;;;;;;8.06;100.00;100844.53;681169;28;4357;-62
2022/09/19 00:28:10;;;;;;;8.80;1.90;;;;;;;8.06;100.00;100847.13;681034;28;1638;-62
2022/09/19 00:28:30;;;;;;;10.40;2.10;;;;;;;8.08;100.00;100849.75;678748;29;1363;-62
2022/09/19 00:28:51;;;;;;;10.90;2.13;;;;;;;8.07;100.00;100843.66;679957;29;1088;-62
2022/09/19 00:29:14;;;;;;;8.85;1.90;;;;;;;8.03;100.00;100849.72;681716;28;1000;-61
2022/09/19 00:29:37;;;;;;;7.18;1.92;;;;;;;8.19;100.00;100841.13;683611;28;963;-61
2022/09/19 00:29:58;;;;;;;10.40;2.20;;;;;;;8.14;100.00;100841.97;683689;28;1124;-61
2022/09/19 00:30:18;;;;;;;11.07;2.17;;;;;;;8.10;100.00;100843.69;683833;28;990;-63
2022/09/19 00:30:39;;;;;;;10.80;2.20;;;;;;;8.05;100.00;100840.16;682957;28;5350;-63
2022/09/19 00:31:00;;;;;;;11.77;2.00;;;;;;;7.97;100.00;100840.09;684138;28;1355;-62
2022/09/19 00:31:21;;;;;;;9.43;2.03;;;;;;;7.92;100.00;100840.91;683233;28;992;-62
2022/09/19 00:31:43;;;;;;;7.30;2.03;;;;;;;7.89;100.00;100840.88;681202;28;1273;-61
2022/09/19 00:32:07;;;;;;;8.63;2.10;;;;;;;7.92;100.00;100835.69;681390;28;1081;-62
2022/09/19 00:32:28;;;;;;;11.80;2.10;;;;;;;7.94;100.00;100836.59;682097;28;1369;-63
2022/09/19 00:32:48;;;;;;;7.37;2.07;;;;;;;7.92;100.00;100838.31;680511;28;1132;-62
2022/09/19 00:33:10;;;;;;;7.95;1.92;;;;;;;7.91;100.00;100839.19;680468;28;1088;-62
2022/09/19 00:33:33;;;;;;;6.68;1.92;;;;;;;7.89;100.00;100839.19;682601;28;1211;-62
2022/09/19 00:33:54;;;;;;;8.75;2.10;;;;;;;7.91;100.00;100839.19;684676;28;4358;-62
2022/09/19 00:34:17;;;;;;;11.68;2.25;;;;;;;7.90;100.00;100845.25;684253;28;1173;-63
2022/09/19 00:34:42;;;;;;;10.48;2.08;;;;;;;7.88;100.00;100841.75;684824;28;1142;-63
2022/09/19 00:35:02;;;;;;;9.50;2.10;;;;;;;7.90;100.00;100837.44;683519;28;1338;-62
2022/09/19 00:35:23;;;;;;;7.93;1.90;;;;;;;7.91;100.00;100839.19;684920;28;1215;-62
2022/09/19 00:35:43;;;;;;;7.82;1.90;;;;;;;7.87;100.00;100835.66;684875;28;1139;-61
2022/09/19 00:36:04;;;;;;;7.93;2.20;;;;;;;7.87;100.00;100837.41;685344;28;1310;-61
2022/09/19 00:36:24;;;;;;;6.85;2.20;;;;;;;7.85;100.00;100834.81;680984;28;1179;-62
2022/09/19 00:36:45;;;;;;;7.93;2.20;;;;;;;7.85;100.00;100837.41;680985;28;4388;-62
2022/09/19 00:37:06;;;;;;;9.33;2.10;;;;;;;7.85;100.00;100840.00;683705;28;1094;-61
2022/09/19 00:37:29;;;;;;;9.18;2.08;;;;;;;7.87;100.00;100840.03;682914;28;1251;-63
2022/09/19 00:37:49;;;;;;;10.95;2.30;;;;;;;7.85;100.00;100834.81;684601;28;1232;-62
2022/09/19 00:38:10;;;;;;;10.68;2.05;;;;;;;7.85;100.00;100840.00;682994;28;1701;-62
2022/09/19 00:38:31;;;;;;;9.88;2.13;;;;;;;7.87;100.00;100835.66;680027;28;1419;-62
2022/09/19 00:38:51;;;;;;;12.33;2.30;;;;;;;7.87;100.00;100842.63;678583;29;4829;-62
2022/09/19 00:39:14;;;;;;;12.40;2.20;;;;;;;7.86;100.00;100841.72;676035;29;1554;-62
2022/09/19 00:39:34;;;;;;;10.40;2.05;;;;;;;7.86;100.00;100840.88;676197;29;1102;-63
2022/09/19 00:39:56;;;;;;;9.68;2.05;;;;;;;7.87;100.00;100838.28;675906;29;4548;-62
2022/09/19 00:40:18;;;;;;;9.75;2.15;;;;;;;7.99;100.00;100832.31;678413;29;1179;-62
2022/09/19 00:40:38;;;;;;;11.40;2.03;;;;;;;7.97;100.00;100839.22;682892;28;1108;-62
2022/09/19 00:40:59;;;;;;;9.13;1.90;;;;;;;7.95;100.00;100838.34;682990;28;1135;-62
2022/09/19 00:41:24;;;;;;;7.15;2.10;;;;;;;7.93;100.00;100838.31;684446;28;1238;-63
2022/09/19 00:41:46;;;;;;;7.57;1.80;;;;;;;7.98;100.00;100838.38;684407;28;1143;-62
2022/09/19 00:42:18;;;;;;;8.10;2.00;;;;;;;8.00;100.00;100834.03;684184;28;1511;-63
2022/09/19 00:42:39;;;;;;;7.95;2.00;;;;;;;7.98;100.00;100836.63;683876;28;4368;-63
2022/09/19 00:43:00;;;;;;;11.07;2.20;;;;;;;7.95;100.00;100835.75;683776;28;1143;-64
2022/09/19 00:43:22;;;;;;;10.68;2.17;;;;;;;7.92;100.00;100843.50;683970;28;921;-63
2022/09/19 00:43:51;;;;;;;10.13;2.03;;;;;;;7.92;100.00;100843.50;684106;28;1323;-63
2022/09/19 00:44:21;;;;;;;9.55;2.10;;;;;;;8.09;100.00;100841.06;684288;28;1220;-63
2022/09/19 00:44:41;;;;;;;12.15;2.10;;;;;;;8.08;100.00;100836.72;684878;28;1130;-61
2022/09/19 00:45:07;;;;;;;11.75;2.00;;;;;;;8.09;100.00;100833.25;682885;28;981;-62
2022/09/19 00:45:28;;;;;;;7.57;1.92;;;;;;;8.00;100.00;100840.13;681207;28;1231;-62
2022/09/19 00:45:49;;;;;;;9.68;2.10;;;;;;;7.98;100.00;100835.78;681287;28;4309;-62
2022/09/19 00:46:09;;;;;;;10.33;2.00;;;;;;;7.93;100.00;100834.84;683107;28;1081;-62
2022/09/19 00:46:32;;;;;;;12.68;2.30;;;;;;;8.04;100.00;100841.03;684168;28;1314;-61
2022/09/19 00:47:09;;;;;;;9.85;2.17;;;;;;;8.06;100.00;100839.31;685139;28;1166;-62
2022/09/19 00:47:39;;;;;;;8.02;2.20;;;;;;;8.04;100.00;100835.81;684936;28;1220;-63
2022/09/19 00:48:00;;;;;;;12.07;2.25;;;;;;;8.07;100.00;100837.56;683244;28;1139;-62
2022/09/19 00:48:22;;;;;;;9.98;2.15;;;;;;;8.16;100.00;100843.72;681168;28;954;-62
2022/09/19 00:48:45;;;;;;;9.77;2.10;;;;;;;8.14;100.00;100842.84;680428;28;4948;-61
2022/09/19 00:49:16;;;;;;;13.13;2.63;;;;;;;8.12;100.00;100841.09;678962;29;2007;-62
2022/09/19 00:49:42;;;;;;;9.98;2.03;;;;;;;8.10;100.00;100842.78;679495;29;1308;-62
2022/09/19 00:50:07;;;;;;;11.10;1.90;;;;;;;8.14;100.00;100842.84;682481;28;1148;-61
2022/09/19 00:50:29;;;;;;;10.10;2.22;;;;;;;8.14;100.00;100847.16;684906;28;1299;-62
2022/09/19 00:50:53;;;;;;;10.40;2.00;;;;;;;8.08;100.00;100847.13;684650;28;1287;-61
2022/09/19 00:51:21;;;;;;;14.18;2.25;;;;;;;8.03;100.00;100839.28;684367;28;1086;-62
2022/09/19 00:51:54;;;;;;;11.32;2.30;;;;;;;8.02;100.00;100842.75;684488;28;4513;-62
2022/09/19 00:52:27;;;;;;;10.88;2.22;;;;;;;8.01;100.00;100844.47;678725;28;1234;-62
2022/09/19 00:52:52;;;;;;;10.68;2.10;;;;;;;8.07;100.00;100850.59;679024;29;1243;-62
2022/09/19 00:53:20;;;;;;;10.40;2.10;;;;;;;8.10;100.00;100841.09;679555;29;1733;-62
2022/09/19 00:53:42;;;;;;;11.23;2.10;;;;;;;8.12;100.00;100846.31;679694;29;1121;-62
2022/09/19 00:54:12;;;;;;;9.02;2.05;;;;;;;8.17;100.00;100836.81;676396;29;2016;-63
2022/09/19 00:54:36;;;;;;;8.60;1.95;;;;;;;8.14;100.00;100847.16;680833;28;1315;-62
2022/09/19 00:54:56;;;;;;;8.95;2.00;;;;;;;8.11;100.00;100848.03;682670;28;4862;-62
2022/09/19 00:55:18;;;;;;;12.87;2.00;;;;;;;8.08;100.00;100848.00;685884;28;1169;-62
2022/09/19 00:55:39;;;;;;;13.52;2.30;;;;;;;8.07;100.00;100845.38;684216;28;1495;-62
2022/09/19 00:56:00;;;;;;;10.10;2.30;;;;;;;8.09;100.00;100841.94;684762;28;1167;-63
2022/09/19 00:56:22;;;;;;;8.23;2.10;;;;;;;8.13;100.00;100841.09;684779;28;1235;-62
2022/09/19 00:56:47;;;;;;;9.88;2.17;;;;;;;8.09;100.00;100844.53;684287;28;1223;-62
2022/09/19 00:57:11;;;;;;;11.63;2.10;;;;;;;8.05;100.00;100840.16;684806;28;1462;-63
2022/09/19 00:57:52;;;;;;;7.90;2.13;;;;;;;8.00;100.00;100841.84;684493;28;1176;-62
2022/09/19 00:58:26;;;;;;;8.82;2.10;;;;;;;7.99;100.00;100843.59;682869;28;4823;-62
2022/09/19 00:58:47;;;;;;;11.32;2.35;;;;;;;8.00;100.00;100844.44;685602;28;1273;-62
2022/09/19 00:59:08;;;;;;;12.48;2.30;;;;;;;7.96;100.00;100843.56;681864;28;1466;-62
2022/09/19 00:59:33;;;;;;;13.02;2.40;;;;;;;7.98;100.00;100848.78;680810;29;1174;-62
2022/09/19 00:59:54;;;;;;;13.40;2.35;;;;;;;7.96;100.00;100840.97;680370;28;1145;-62
2022/09/19 01:00:14;;;;;;;9.32;2.20;;;;;;;7.96;100.00;100846.19;678885;28;1652;-63
2022/09/19 01:00:35;;;;;;;8.63;2.00;;;;;;;7.92;100.00;100847.00;677329;28;1964;-63
2022/09/19 01:00:57;;;;;;;10.95;2.20;;;;;;;7.90;100.00;100842.66;680591;29;4396;-62
2022/09/19 01:01:17;;;;;;;14.75;2.30;;;;;;;7.90;100.00;100842.66;680652;28;2013;-62
2022/09/19 01:01:38;;;;;;;7.67;2.07;;;;;;;7.89;100.00;100846.09;682036;28;1136;-62
2022/09/19 01:02:04;;;;;;;7.40;2.08;;;;;;;7.87;100.00;100845.22;682387;29;1183;-63
2022/09/19 01:02:28;;;;;;;9.73;2.40;;;;;;;7.83;100.00;100842.56;678264;28;2083;-62
2022/09/19 01:02:49;;;;;;;9.90;2.00;;;;;;;7.83;100.00;100839.09;675545;28;2845;-63
2022/09/19 01:03:10;;;;;;;11.40;2.15;;;;;;;7.83;100.00;100845.16;679980;28;1807;-62
2022/09/19 01:03:31;;;;;;;10.48;2.20;;;;;;;7.90;100.00;100843.50;682688;28;1268;-62
2022/09/19 01:03:55;;;;;;;8.23;2.00;;;;;;;7.93;100.00;100848.72;682173;28;4531;-64
2022/09/19 01:04:19;;;;;;;10.27;2.03;;;;;;;7.92;100.00;100846.13;681895;28;1326;-62
2022/09/19 01:04:40;;;;;;;10.15;2.17;;;;;;;7.91;100.00;100842.66;683008;28;1073;-62
2022/09/19 01:05:02;;;;;;;11.55;2.60;;;;;;;7.93;100.00;100842.66;683808;28;1255;-62
2022/09/19 01:05:33;;;;;;;9.30;2.25;;;;;;;7.92;100.00;100852.22;685413;28;1922;-62
2022/09/19 01:06:15;;;;;;;7.05;1.95;;;;;;;7.90;100.00;100846.09;685589;28;1234;-62
2022/09/19 01:07:08;;;;;;;11.93;2.25;;;;;;;7.92;100.00;100846.13;685561;28;1449;-62
2022/09/19 01:08:01;;;;;;;9.43;2.13;;;;;;;7.95;100.00;100846.16;681881;28;4987;-62
2022/09/19 01:08:32;;;;;;;9.18;2.17;;;;;;;7.89;100.00;100848.69;682535;28;996;-62
2022/09/19 01:09:16;;;;;;;14.73;2.70;;;;;;;7.83;100.00;100841.72;685260;28;1163;-63
2022/09/19 01:09:50;;;;;;;10.90;2.10;;;;;;;7.82;100.00;100847.75;684637;28;1147;-62
2022/09/19 01:10:34;;;;;;;13.07;2.40;;;;;;;7.80;100.00;100845.16;684147;28;1180;-62
2022/09/19 01:11:15;;;;;;;8.50;2.17;;;;;;;7.81;100.00;100846.03;683191;28;1232;-62
2022/09/19 01:11:58;;;;;;;12.05;2.10;;;;;;;7.83;100.00;100847.78;682848;28;1344;-62
2022/09/19 01:12:44;;;;;;;12.10;2.10;;;;;;;7.82;100.00;100843.44;684827;28;1232;-62
2022/09/19 01:13:15;;;;;;;10.00;2.38;;;;;;;7.82;100.00;100851.25;685235;28;4949;-62
2022/09/19 01:14:07;;;;;;;10.73;2.10;;;;;;;7.82;100.00;100848.66;686134;28;1235;-62
2022/09/19 01:14:51;;;;;;;9.80;2.40;;;;;;;7.80;100.00;100847.75;684538;28;1115;-62
2022/09/19 01:15:45;;;;;;;12.52;2.25;;;;;;;7.94;100.00;100852.22;684825;28;1222;-62
2022/09/19 01:16:10;;;;;;;8.88;1.80;;;;;;;7.91;100.00;100855.66;684682;28;4796;-62
2022/09/19 01:16:51;;;;;;;9.23;2.20;;;;;;;7.91;100.00;100854.81;680495;29;1291;-62
2022/09/19 01:17:19;;;;;;;8.80;2.15;;;;;;;7.89;100.00;100856.50;680288;28;1275;-62
2022/09/19 01:18:01;;;;;;;9.77;2.10;;;;;;;7.91;100.00;100854.81;681864;28;1082;-62
2022/09/19 01:18:33;;;;;;;9.45;2.00;;;;;;;7.89;100.00;100859.09;681131;28;1302;-62
2022/09/19 01:19:04;;;;;;;12.35;2.00;;;;;;;7.89;100.00;100853.91;680570;28;4449;-62
2022/09/19 01:19:47;;;;;;;10.02;2.08;;;;;;;7.89;100.00;100851.31;685037;28;1177;-62
2022/09/19 01:20:30;;;;;;;9.32;2.20;;;;;;;7.88;100.00;100854.75;681932;28;1210;-62
2022/09/19 01:21:54;;;;;;;8.70;1.88;;;;;;;7.89;100.00;100865.22;681500;29;4656;-62
2022/09/19 01:22:52;;;;;;;8.07;2.00;;;;;;;7.94;100.00;100853.09;681986;28;1748;-62
2022/09/19 01:23:44;;;;;;;9.30;2.00;;;;;;;7.89;100.00;100856.50;684904;28;1230;-62
2022/09/19 01:24:27;;;;;;;8.05;1.90;;;;;;;7.91;100.00;100854.81;683587;28;1104;-62
2022/09/19 01:25:07;;;;;;;8.80;2.42;;;;;;;7.87;100.00;100855.63;683714;28;4493;-62
2022/09/19 01:25:52;;;;;;;8.55;2.05;;;;;;;7.86;100.00;100856.47;680767;28;1297;-61
2022/09/19 01:26:45;;;;;;;8.15;1.90;;;;;;;7.87;100.00;100853.03;683135;28;965;-62
2022/09/19 01:27:44;;;;;;;9.48;2.30;;;;;;;7.89;100.00;100852.19;679947;29;1595;-62
2022/09/19 01:28:17;;;;;;;8.80;2.00;;;;;;;7.88;100.00;100853.03;683035;28;6727;-62
2022/09/19 01:29:00;;;;;;;6.88;1.80;;;;;;;7.88;100.00;100860.84;678509;29;1817;-61
2022/09/19 01:29:25;;;;;;;7.63;1.95;;;;;;;7.88;100.00;100854.75;681484;28;1338;-62
2022/09/19 01:30:03;;;;;;;9.27;2.08;;;;;;;7.86;100.00;100856.47;682065;29;1117;-62
2022/09/19 01:30:30;;;;;;;9.25;2.03;;;;;;;7.85;100.00;100855.63;681360;28;1269;-62
2022/09/19 01:31:42;;;;;;;9.50;2.40;;;;;;;7.84;100.00;100859.94;683926;28;1068;-62
2022/09/19 01:32:08;;;;;;;11.02;2.00;;;;;;;7.84;100.00;100859.06;685205;28;1275;-63
2022/09/19 01:32:35;;;;;;;8.02;2.13;;;;;;;7.83;100.00;100855.59;684544;28;1228;-62
2022/09/19 01:33:04;;;;;;;7.93;2.08;;;;;;;7.83;100.00;100857.31;684689;28;1188;-62
2022/09/19 01:33:25;;;;;;;9.60;2.10;;;;;;;7.84;100.00;100859.94;682101;28;1758;-62
2022/09/19 01:34:12;;;;;;;12.57;2.30;;;;;;;7.89;100.00;100861.72;679406;29;4357;-62
2022/09/19 01:34:39;;;;;;;11.43;2.20;;;;;;;7.87;100.00;100864.31;679675;29;1406;-62
2022/09/19 01:35:05;;;;;;;9.77;1.88;;;;;;;7.85;100.00;100858.22;677100;29;1252;-62
2022/09/19 01:35:31;;;;;;;9.27;1.92;;;;;;;7.85;100.00;100866.03;678793;29;1385;-62
2022/09/19 01:35:54;;;;;;;9.50;2.33;;;;;;;7.83;100.00;100863.38;678799;29;1269;-62
2022/09/19 01:36:17;;;;;;;7.85;2.15;;;;;;;7.83;100.00;100867.72;676915;29;1513;-62
2022/09/19 01:36:48;;;;;;;5.03;1.50;;;;;;;7.82;100.00;100866.88;678771;28;4630;-62
2022/09/19 01:37:19;;;;;;;6.63;1.70;;;;;;;7.81;100.00;100864.25;678921;29;1105;-62
2022/09/19 01:37:52;;;;;;;7.35;1.77;;;;;;;7.81;100.00;100859.91;683512;28;1494;-62
2022/09/19 01:38:19;;;;;;;12.35;2.08;;;;;;;7.81;100.00;100862.53;683443;28;1671;-62
2022/09/19 01:38:43;;;;;;;9.98;1.90;;;;;;;7.81;100.00;100865.13;683431;28;1943;-62
2022/09/19 01:39:06;;;;;;;8.13;2.38;;;;;;;7.80;100.00;100860.75;683615;28;1239;-62
2022/09/19 01:39:37;;;;;;;7.20;1.75;;;;;;;7.80;100.00;100863.38;685323;28;1693;-62
2022/09/19 01:40:01;;;;;;;6.07;1.80;;;;;;;7.82;100.00;100864.28;683695;28;4368;-62
2022/09/19 01:40:22;;;;;;;7.75;1.90;;;;;;;7.80;100.00;100858.16;689347;28;1298;-63
2022/09/19 01:40:54;;;;;;;8.23;1.90;;;;;;;7.80;100.00;100865.97;682414;28;1292;-63
2022/09/19 01:41:15;;;;;;;7.55;1.70;;;;;;;7.80;100.00;100863.38;683313;28;1277;-62
2022/09/19 01:41:36;;;;;;;7.50;1.80;;;;;;;7.80;100.00;100858.16;679418;29;1204;-62
2022/09/19 01:41:58;;;;;;;5.45;1.70;;;;;;;7.79;100.00;100864.22;679731;29;1255;-62
2022/09/19 01:42:20;;;;;;;8.05;1.90;;;;;;;7.81;100.00;100862.53;680592;29;982;-62
2022/09/19 01:42:49;;;;;;;9.82;2.15;;;;;;;7.84;100.00;100867.75;682071;28;4363;-63
2022/09/19 01:43:16;;;;;;;13.73;1.98;;;;;;;7.82;100.00;100861.66;682251;28;1425;-62
2022/09/19 01:43:36;;;;;;;5.72;1.70;;;;;;;7.81;100.00;100859.91;679504;28;1344;-62
2022/09/19 01:44:05;;;;;;;8.70;1.90;;;;;;;7.81;100.00;100862.53;677788;29;1296;-62
2022/09/19 01:44:29;;;;;;;9.98;2.10;;;;;;;7.81;100.00;100870.31;678781;29;1192;-62
2022/09/19 01:44:52;;;;;;;7.85;1.85;;;;;;;7.80;100.00;100873.78;676242;29;1537;-62
2022/09/19 01:45:12;;;;;;;6.30;1.80;;;;;;;7.77;100.00;100868.56;679126;29;2102;-62
2022/09/19 01:45:36;;;;;;;7.28;1.70;;;;;;;7.71;100.00;100873.69;683288;28;1367;-62
2022/09/19 01:46:10;;;;;;;6.60;1.83;;;;;;;7.72;100.00;100869.38;679453;29;4898;-62
2022/09/19 01:46:57;;;;;;;7.18;1.83;;;;;;;7.89;100.00;100877.34;678296;29;1213;-62
2022/09/19 01:47:34;;;;;;;12.52;2.10;;;;;;;7.88;100.00;100875.56;678337;29;1314;-63
2022/09/19 01:48:15;;;;;;;13.35;2.38;;;;;;;7.83;100.00;100878.16;681035;29;1466;-62
2022/09/19 01:48:53;;;;;;;8.23;2.05;;;;;;;7.81;100.00;100880.75;683651;28;1461;-62
2022/09/19 01:49:21;;;;;;;6.72;1.80;;;;;;;7.81;100.00;100880.75;682848;28;5106;-61
2022/09/19 01:50:04;;;;;;;7.43;1.73;;;;;;;7.86;100.00;100883.38;684068;28;897;-62
2022/09/19 01:50:50;;;;;;;8.32;2.05;;;;;;;7.86;100.00;100882.50;682815;28;1174;-62
2022/09/19 01:51:33;;;;;;;6.82;1.90;;;;;;;7.84;100.00;100882.50;677192;29;1460;-62
2022/09/19 01:52:07;;;;;;;7.07;1.80;;;;;;;7.84;100.00;100880.75;681262;28;4557;-62
2022/09/19 01:52:56;;;;;;;5.80;1.80;;;;;;;7.84;100.00;100885.97;682242;29;1412;-62
2022/09/19 01:53:56;;;;;;;7.40;1.70;;;;;;;7.82;100.00;100886.81;682540;28;1597;-62
2022/09/19 01:54:56;;;;;;;11.18;2.00;;;;;;;7.87;100.00;100885.13;682213;28;1604;-62
2022/09/19 01:55:38;;;;;;;6.82;1.60;;;;;;;7.84;100.00;100892.91;679983;28;5019;-62
2022/09/19 01:56:28;;;;;;;8.98;2.10;;;;;;;7.82;100.00;100885.09;680991;29;1657;-62
2022/09/19 01:56:58;;;;;;;6.60;1.73;;;;;;;7.80;100.00;100884.19;679094;29;1028;-61
2022/09/19 01:57:40;;;;;;;5.32;1.70;;;;;;;7.81;100.00;100888.53;681291;28;1391;-62
2022/09/19 01:58:34;;;;;;;11.00;1.98;;;;;;;7.79;100.00;100890.25;680923;28;4970;-62
2022/09/19 01:59:29;;;;;;;10.50;2.15;;;;;;;7.76;100.00;100890.22;683613;28;1443;-62
2022/09/19 02:00:05;;;;;;;7.07;1.80;;;;;;;7.77;100.00;100888.50;685875;28;1224;-62
2022/09/19 02:00:47;;;;;;;9.43;1.98;;;;;;;7.76;100.00;100892.81;684615;28;1082;-62
2022/09/19 02:01:13;;;;;;;8.70;1.90;;;;;;;7.76;100.00;100887.63;687044;28;5112;-63
2022/09/19 02:01:50;;;;;;;7.80;1.95;;;;;;;7.79;100.00;100887.63;687042;28;1080;-62
2022/09/19 02:02:34;;;;;;;6.95;1.70;;;;;;;7.80;100.00;100886.78;686402;28;2242;-63
2022/09/19 02:03:08;;;;;;;7.05;2.10;;;;;;;7.85;100.00;100886.88;679834;29;1484;-62
2022/09/19 02:03:48;;;;;;;7.95;2.03;;;;;;;7.84;100.00;100882.50;683379;28;1588;-62
2022/09/19 02:04:37;;;;;;;8.50;1.85;;;;;;;7.79;100.00;100890.25;681473;28;4768;-62
2022/09/19 02:05:23;;;;;;;9.80;1.83;;;;;;;7.77;100.00;100891.97;681551;29;1249;-62
2022/09/19 02:06:06;;;;;;;9.85;1.90;;;;;;;7.78;100.00;100891.13;684439;28;1998;-62
2022/09/19 02:06:32;;;;;;;6.47;1.75;;;;;;;7.78;100.00;100890.22;679014;29;1325;-62
2022/09/19 02:07:07;;;;;;;7.63;2.08;;;;;;;7.78;100.00;100893.72;676632;29;4383;-62
2022/09/19 02:07:42;;;;;;;8.15;2.03;;;;;;;7.79;100.00;100895.44;675056;29;1361;-62
2022/09/19 02:08:17;;;;;;;11.43;1.95;;;;;;;7.77;100.00;100891.97;677124;29;1252;-62
2022/09/19 02:09:00;;;;;;;7.97;2.03;;;;;;;7.77;100.00;100889.38;681016;29;1604;-62
2022/09/19 02:09:49;;;;;;;9.27;2.00;;;;;;;7.76;100.00;100891.97;682259;28;4524;-62
2022/09/19 02:10:35;;;;;;;8.70;1.90;;;;;;;7.80;100.00;100888.53;681600;28;1660;-62
2022/09/19 02:11:00;;;;;;;9.48;1.60;;;;;;;7.77;100.00;100884.16;684916;28;1601;-62
2022/09/19 02:11:25;;;;;;;7.45;1.88;;;;;;;7.77;100.00;100891.13;681953;28;1324;-62
2022/09/19 02:11:46;;;;;;;9.05;1.75;;;;;;;7.78;100.00;100896.34;679675;28;1272;-63
2022/09/19 02:12:10;;;;;;;9.48;1.83;;;;;;;7.79;100.00;100887.63;683210;28;1057;-62
2022/09/19 02:12:35;;;;;;;12.93;2.17;;;;;;;7.79;100.00;100891.97;682234;28;1199;-63
2022/09/19 02:12:58;;;;;;;11.50;2.17;;;;;;;7.77;100.00;100889.38;678624;29;4591;-62
2022/09/19 02:13:44;;;;;;;10.50;2.03;;;;;;;7.79;100.00;100892.84;683517;28;1220;-62
2022/09/19 02:14:16;;;;;;;8.00;2.15;;;;;;;7.79;100.00;100889.38;683318;28;1554;-62
2022/09/19 02:14:40;;;;;;;9.90;2.13;;;;;;;7.79;100.00;100887.63;681580;28;1420;-62
2022/09/19 02:15:03;;;;;;;8.57;2.40;;;;;;;7.77;100.00;100891.13;684362;28;1277;-62
2022/09/19 02:15:33;;;;;;;10.10;1.98;;;;;;;7.76;100.00;100890.22;684525;28;1289;-63
2022/09/19 02:16:04;;;;;;;9.23;1.90;;;;;;;7.88;100.00;100889.47;682950;28;4446;-62
2022/09/19 02:16:36;;;;;;;8.32;1.92;;;;;;;7.88;100.00;100886.88;685608;28;961;-62
2022/09/19 02:17:07;;;;;;;6.78;1.98;;;;;;;7.86;100.00;100891.19;684072;28;1348;-63